createdAt,value
2024-02-10T00:00:01.388Z,3.97
2024-02-10T00:02:28.902Z,3.67
2024-02-10T00:04:57.523Z,3.78
2024-02-10T00:07:25.033Z,3.53
2024-02-10T00:09:52.386Z,3.85
2024-02-10T00:12:22.726Z,3.95
2024-02-10T00:14:50.077Z,3.65
2024-02-10T00:17:17.581Z,3.50
2024-02-10T00:19:49.571Z,3.95
2024-02-10T00:22:18.313Z,3.60
2024-02-10T00:24:46.235Z,3.62
2024-02-10T00:27:18.060Z,3.75
2024-02-10T00:29:46.396Z,4.20
2024-02-10T00:32:14.588Z,3.50
2024-02-10T00:34:43.127Z,4.20
2024-02-10T00:37:11.093Z,3.80
2024-02-10T00:39:38.524Z,3.42
2024-02-10T00:42:05.953Z,3.53
2024-02-10T00:44:35.123Z,4.80
2024-02-10T00:47:06.009Z,3.40
2024-02-10T00:49:34.515Z,4.12
2024-02-10T00:52:01.974Z,4.20
2024-02-10T00:54:31.086Z,3.78
2024-02-10T00:56:58.764Z,4.28
2024-02-10T00:59:26.207Z,3.70
2024-02-10T01:01:53.763Z,3.62
2024-02-10T01:04:21.871Z,3.60
2024-02-10T01:06:50.045Z,3.75
2024-02-10T01:09:17.471Z,3.40
2024-02-10T01:11:45.311Z,3.92
2024-02-10T01:14:13.925Z,3.62
2024-02-10T01:16:44.642Z,3.70
2024-02-10T01:19:13.001Z,3.80
2024-02-10T01:21:41.467Z,2.67
2024-02-10T01:24:09.931Z,3.80
2024-02-10T01:26:37.592Z,3.08
2024-02-10T01:29:09.610Z,2.92
2024-02-10T01:31:37.136Z,3.00
2024-02-10T01:34:05.002Z,3.58
2024-02-10T01:36:35.176Z,3.00
2024-02-10T01:39:02.602Z,3.30
2024-02-10T01:41:30.284Z,3.22
2024-02-10T01:43:59.782Z,2.80
2024-02-10T01:46:28.116Z,2.97
2024-02-10T01:48:57.016Z,2.90
2024-02-10T01:51:25.101Z,3.75
2024-02-10T01:53:53.751Z,2.95
2024-02-10T01:56:21.610Z,3.17
2024-02-10T01:58:49.673Z,3.55
2024-02-10T02:01:17.533Z,3.03
2024-02-10T02:03:47.731Z,3.03
2024-02-10T02:06:19.164Z,3.47
2024-02-10T02:08:49.266Z,3.00
2024-02-10T02:11:17.125Z,3.35
2024-02-10T02:13:45.241Z,2.80
2024-02-10T02:16:13.686Z,2.87
2024-02-10T02:18:45.310Z,2.33
2024-02-10T02:21:13.802Z,2.65
2024-02-10T02:23:41.721Z,3.20
2024-02-10T02:26:09.188Z,2.75
2024-02-10T02:28:39.077Z,3.12
2024-02-10T02:31:06.724Z,2.60
2024-02-10T02:33:37.186Z,2.70
2024-02-10T02:36:04.992Z,2.15
2024-02-10T02:38:32.398Z,2.90
2024-02-10T02:40:59.960Z,2.47
2024-02-10T02:43:27.798Z,2.80
2024-02-10T02:45:55.188Z,2.65
2024-02-10T02:48:22.749Z,2.80
2024-02-10T02:50:51.056Z,2.12
2024-02-10T02:53:18.385Z,3.10
2024-02-10T02:55:47.219Z,2.80
2024-02-10T02:58:15.581Z,2.97
2024-02-10T03:00:43.283Z,2.50
2024-02-10T03:03:11.163Z,2.37
2024-02-10T03:05:39.187Z,2.50
2024-02-10T03:08:08.400Z,2.67
2024-02-10T03:10:36.118Z,2.55
2024-02-10T03:13:04.284Z,2.20
2024-02-10T03:15:39.481Z,2.30
2024-02-10T03:18:09.531Z,2.33
2024-02-10T03:20:37.434Z,2.50
2024-02-10T03:23:13.792Z,2.30
2024-02-10T03:25:44.020Z,2.85
2024-02-10T03:28:11.402Z,3.00
2024-02-10T03:30:38.772Z,2.62
2024-02-10T03:33:06.525Z,2.72
2024-02-10T03:35:34.750Z,2.53
2024-02-10T03:38:02.484Z,2.80
2024-02-10T03:40:30.359Z,2.65
2024-02-10T03:42:57.912Z,2.70
2024-02-10T03:45:31.520Z,3.20
2024-02-10T03:48:06.729Z,2.90
2024-02-10T03:50:34.289Z,3.10
2024-02-10T03:53:01.965Z,2.80
2024-02-10T03:55:31.749Z,2.62
2024-02-10T03:58:00.492Z,3.25
2024-02-10T04:00:29.655Z,3.72
2024-02-10T04:02:57.432Z,2.92
2024-02-10T04:05:29.666Z,3.33
2024-02-10T04:07:57.403Z,3.08
2024-02-10T04:10:24.824Z,2.70
2024-02-10T04:12:52.298Z,3.47
2024-02-10T04:15:22.123Z,3.28
2024-02-10T04:17:54.524Z,3.70
2024-02-10T04:20:24.116Z,3.47
2024-02-10T04:22:51.703Z,3.12
2024-02-10T04:25:19.718Z,3.50
2024-02-10T04:27:47.405Z,3.72
2024-02-10T04:30:14.864Z,3.05
2024-02-10T04:32:51.693Z,3.00
2024-02-10T04:35:21.078Z,3.25
2024-02-10T04:37:53.503Z,3.37
2024-02-10T04:40:25.730Z,3.85
2024-02-10T04:42:56.501Z,3.70
2024-02-10T04:45:33.512Z,3.20
2024-02-10T04:48:02.626Z,3.60
2024-02-10T04:50:30.487Z,3.67
2024-02-10T04:52:58.890Z,3.10
2024-02-10T04:55:26.758Z,3.50
2024-02-10T04:57:55.762Z,3.40
2024-02-10T05:00:24.197Z,3.47
2024-02-10T05:02:52.898Z,2.70
2024-02-10T05:05:21.337Z,2.80
2024-02-10T05:07:50.366Z,3.78
2024-02-10T05:10:20.075Z,3.17
2024-02-10T05:12:49.047Z,3.03
2024-02-10T05:15:22.176Z,3.05
2024-02-10T05:17:51.321Z,2.90
2024-02-10T05:20:21.443Z,2.85
2024-02-10T05:22:51.324Z,3.10
2024-02-10T05:25:21.212Z,3.45
2024-02-10T05:27:49.207Z,2.95
2024-02-10T05:30:26.026Z,2.67
2024-02-10T05:32:57.989Z,2.65
2024-02-10T05:35:27.668Z,3.10
2024-02-10T05:37:57.678Z,2.17
2024-02-10T05:40:27.054Z,2.80
2024-02-10T05:43:00.188Z,3.17
2024-02-10T05:45:29.322Z,3.47
2024-02-10T05:47:57.156Z,3.45
2024-02-10T05:50:25.705Z,3.78
2024-02-10T05:52:54.583Z,3.40
2024-02-10T05:55:28.147Z,3.58
2024-02-10T05:57:56.668Z,3.75
2024-02-10T06:00:24.828Z,4.18
2024-02-10T06:02:52.921Z,4.43
2024-02-10T06:05:20.390Z,4.87
2024-02-10T06:07:49.763Z,4.50
2024-02-10T06:10:17.951Z,5.25
2024-02-10T06:12:45.861Z,4.68
2024-02-10T06:15:14.386Z,5.00
2024-02-10T06:17:44.778Z,4.40
2024-02-10T06:20:16.150Z,3.97
2024-02-10T06:22:48.928Z,4.12
2024-02-10T06:27:55.842Z,4.25
2024-02-10T06:30:25.669Z,4.05
2024-02-10T06:32:53.136Z,3.58
2024-02-10T06:35:21.199Z,3.75
2024-02-10T06:37:50.584Z,3.67
2024-02-10T06:40:19.242Z,4.62
2024-02-10T06:42:51.654Z,3.50
2024-02-10T06:45:23.604Z,3.72
2024-02-10T06:50:25.711Z,4.10
2024-02-10T06:52:54.508Z,4.28
2024-02-10T06:55:25.075Z,4.57
2024-02-10T06:57:54.489Z,4.53
2024-02-10T07:00:23.306Z,4.93
2024-02-10T07:02:50.751Z,5.30
2024-02-10T07:05:19.592Z,4.80
2024-02-10T07:07:51.115Z,5.05
2024-02-10T07:10:20.718Z,5.10
2024-02-10T07:12:56.501Z,5.10
2024-02-10T07:15:26.550Z,5.53
2024-02-10T07:17:54.877Z,4.90
2024-02-10T07:20:26.824Z,4.85
2024-02-10T07:25:29.657Z,5.37
2024-02-10T07:28:04.500Z,4.60
2024-02-10T07:30:33.371Z,4.22
2024-02-10T07:33:11.331Z,6.10
2024-02-10T07:35:40.632Z,8.57
2024-02-10T07:38:09.990Z,6.82
2024-02-10T07:40:38.187Z,5.50
2024-02-10T07:43:07.652Z,4.93
2024-02-10T07:45:35.568Z,4.43
2024-02-10T07:48:05.183Z,4.65
2024-02-10T07:50:32.872Z,5.55
2024-02-10T07:53:01.414Z,4.62
2024-02-10T07:55:29.322Z,5.30
2024-02-10T07:58:00.573Z,5.55
2024-02-10T08:00:28.846Z,2.87
2024-02-10T08:02:56.535Z,2.60
2024-02-10T08:05:23.917Z,2.78
2024-02-10T08:07:51.543Z,2.75
2024-02-10T08:10:20.653Z,2.85
2024-02-10T08:12:51.456Z,2.83
2024-02-10T08:15:19.474Z,2.65
2024-02-10T08:17:46.982Z,2.53
2024-02-10T08:20:15.022Z,2.50
2024-02-10T08:22:42.962Z,2.67
2024-02-10T08:25:11.018Z,2.37
2024-02-10T08:27:41.980Z,2.35
2024-02-10T08:30:19.086Z,3.08
2024-02-10T08:32:46.775Z,3.00
2024-02-10T08:35:14.666Z,2.87
2024-02-10T08:37:43.480Z,2.10
2024-02-10T08:40:11.643Z,2.65
2024-02-10T08:42:39.460Z,2.10
2024-02-10T08:45:07.256Z,2.58
2024-02-10T08:47:34.699Z,2.12
2024-02-10T08:50:02.981Z,2.62
2024-02-10T08:52:31.942Z,2.47
2024-02-10T08:55:00.373Z,2.47
2024-02-10T08:57:28.068Z,2.62
2024-02-10T08:59:56.261Z,2.90
2024-02-10T09:02:24.503Z,2.20
2024-02-10T09:04:54.853Z,2.28
2024-02-10T09:07:22.580Z,1.92
2024-02-10T09:09:50.155Z,2.10
2024-02-10T09:12:18.527Z,1.60
2024-02-10T09:14:47.587Z,1.77
2024-02-10T09:17:15.047Z,2.10
2024-02-10T09:19:43.059Z,2.00
2024-02-10T09:22:11.325Z,1.60
2024-02-10T09:24:41.025Z,1.75
2024-02-10T09:27:11.813Z,2.33
2024-02-10T09:29:39.458Z,2.22
2024-02-10T09:32:07.344Z,2.05
2024-02-10T09:34:35.419Z,2.30
2024-02-10T09:37:03.051Z,1.90
2024-02-10T09:39:30.936Z,2.28
2024-02-10T09:42:06.709Z,2.10
2024-02-10T09:44:38.543Z,2.33
2024-02-10T09:47:08.876Z,2.10
2024-02-10T09:49:39.006Z,1.95
2024-02-10T09:52:06.779Z,2.20
2024-02-10T09:54:34.148Z,2.08
2024-02-10T09:57:04.059Z,1.80
2024-02-10T09:59:33.217Z,2.20
2024-02-10T10:02:01.097Z,1.80
2024-02-10T10:04:28.954Z,1.87
2024-02-10T10:06:57.267Z,1.92
2024-02-10T10:09:24.691Z,1.58
2024-02-10T10:11:52.906Z,2.62
2024-02-10T10:14:21.493Z,1.90
2024-02-10T10:17:01.377Z,1.90
2024-02-10T10:19:30.126Z,1.92
2024-02-10T10:21:58.842Z,2.05
2024-02-10T10:24:27.872Z,2.10
2024-02-10T10:26:56.620Z,2.33
2024-02-10T10:29:24.239Z,2.42
2024-02-10T10:31:54.464Z,2.22
2024-02-10T10:34:24.352Z,2.08
2024-02-10T10:36:54.679Z,1.75
2024-02-10T10:39:23.296Z,1.90
2024-02-10T10:41:53.000Z,1.70
2024-02-10T10:44:22.407Z,1.70
2024-02-10T10:46:53.423Z,1.58
2024-02-10T10:49:21.553Z,2.03
2024-02-10T10:52:03.527Z,1.73
2024-02-10T10:54:36.308Z,1.70
2024-02-10T10:59:36.497Z,1.52
2024-02-10T11:02:07.040Z,1.27
2024-02-10T11:04:36.749Z,1.58
2024-02-10T11:07:12.322Z,1.87
2024-02-10T11:09:49.072Z,1.83
2024-02-10T11:12:16.584Z,2.00
2024-02-10T11:14:54.691Z,2.05
2024-02-10T11:17:22.388Z,2.45
2024-02-10T11:20:04.811Z,1.87
2024-02-10T11:22:36.627Z,1.58
2024-02-10T11:27:35.909Z,1.95
2024-02-10T11:30:04.174Z,2.05
2024-02-10T11:32:33.643Z,1.73
2024-02-10T11:35:01.502Z,2.03
2024-02-10T11:37:31.293Z,1.85
2024-02-10T11:39:59.192Z,1.75
2024-02-10T11:45:02.339Z,1.90
2024-02-10T11:47:31.997Z,1.70
2024-02-10T11:50:00.840Z,1.67
2024-02-10T11:52:30.338Z,1.77
2024-02-10T11:54:57.982Z,2.80
2024-02-10T11:57:27.822Z,1.85
2024-02-10T11:59:56.976Z,1.83
2024-02-10T12:02:25.431Z,1.90
2024-02-10T12:04:53.428Z,1.92
2024-02-10T12:07:21.059Z,1.58
2024-02-10T12:09:48.899Z,1.80
2024-02-10T12:12:17.223Z,1.70
2024-02-10T12:14:46.002Z,1.90
2024-02-10T12:17:17.263Z,2.03
2024-02-10T12:19:46.894Z,2.03
2024-02-10T12:22:14.285Z,1.90
2024-02-10T12:24:43.817Z,2.55
2024-02-10T12:27:12.327Z,1.83
2024-02-10T12:29:39.965Z,1.92
2024-02-10T12:32:10.251Z,1.73
2024-02-10T12:34:38.215Z,1.85
2024-02-10T12:37:08.684Z,1.85
2024-02-10T12:39:36.117Z,1.80
2024-02-10T12:42:04.223Z,2.58
2024-02-10T12:44:32.977Z,2.75
2024-02-10T12:47:03.083Z,2.97
2024-02-10T12:49:30.870Z,2.60
2024-02-10T12:51:58.344Z,2.50
2024-02-10T12:54:29.011Z,2.28
2024-02-10T12:56:57.502Z,2.20
2024-02-10T12:59:25.347Z,2.25
2024-02-10T13:01:52.837Z,2.83
2024-02-10T13:04:22.331Z,2.45
2024-02-10T13:06:50.426Z,2.53
2024-02-10T13:09:19.294Z,2.62
2024-02-10T13:11:47.040Z,2.83
2024-02-10T13:14:14.462Z,2.17
2024-02-10T13:16:42.019Z,2.92
2024-02-10T13:19:16.016Z,2.67
2024-02-10T13:21:45.178Z,2.42
2024-02-10T13:24:12.815Z,2.53
2024-02-10T13:26:40.162Z,5.70
2024-02-10T13:29:09.219Z,2.45
2024-02-10T13:31:37.182Z,3.50
2024-02-10T13:34:11.615Z,2.97
2024-02-10T13:36:48.054Z,2.33
2024-02-10T13:39:34.162Z,3.20
2024-02-10T13:42:20.125Z,2.35
2024-02-10T13:45:06.130Z,2.33
2024-02-10T13:47:52.267Z,6.80
2024-02-10T13:50:38.410Z,7.25
2024-02-10T13:53:24.502Z,4.30
2024-02-10T13:56:10.590Z,18.98
2024-02-10T13:58:38.370Z,37.97
2024-02-10T14:01:11.469Z,24.87
2024-02-10T14:03:59.354Z,7.40
2024-02-10T14:06:33.480Z,12.63
2024-02-10T14:09:05.114Z,4.00
2024-02-10T14:11:37.369Z,14.50
2024-02-10T14:14:05.782Z,8.65
2024-02-10T14:16:34.714Z,10.45
2024-02-10T14:19:06.895Z,6.20
2024-02-10T14:21:37.475Z,5.82
2024-02-10T14:24:06.573Z,5.50
2024-02-10T14:26:57.296Z,5.10
2024-02-10T14:29:35.084Z,3.92
2024-02-10T14:32:14.147Z,2.90
2024-02-10T14:35:11.385Z,5.15
2024-02-10T14:37:48.373Z,3.00
2024-02-10T14:40:34.479Z,3.00
2024-02-10T14:43:02.082Z,3.55
2024-02-10T14:45:30.045Z,2.58
2024-02-10T14:47:58.067Z,4.43
2024-02-10T14:50:26.093Z,4.05
2024-02-10T14:52:55.406Z,4.30
2024-02-10T14:55:22.953Z,2.85
2024-02-10T14:57:51.742Z,3.58
2024-02-10T15:00:32.032Z,2.53
2024-02-10T15:03:09.461Z,3.15
2024-02-10T15:05:39.587Z,3.65
2024-02-10T15:08:07.399Z,3.95
2024-02-10T15:10:35.101Z,3.33
2024-02-10T15:13:05.780Z,3.50
2024-02-10T15:15:47.368Z,3.00
2024-02-10T15:18:16.277Z,3.10
2024-02-10T15:20:44.811Z,4.20
2024-02-10T15:23:13.540Z,3.70
2024-02-10T15:25:45.339Z,3.58
2024-02-10T15:28:16.506Z,3.30
2024-02-10T15:30:48.580Z,3.15
2024-02-10T15:33:19.943Z,3.50
2024-02-10T15:35:51.134Z,3.47
2024-02-10T15:38:23.168Z,3.70
2024-02-10T15:40:52.950Z,3.87
2024-02-10T15:43:21.676Z,3.67
2024-02-10T15:45:49.382Z,4.50
2024-02-10T15:48:19.083Z,4.25
2024-02-10T15:50:47.628Z,3.60
2024-02-10T15:53:15.937Z,4.57
2024-02-10T15:55:43.712Z,4.37
2024-02-10T15:58:18.429Z,3.40
2024-02-10T16:00:48.329Z,3.00
2024-02-10T16:03:20.179Z,4.68
2024-02-10T16:05:48.466Z,4.37
2024-02-10T16:08:18.971Z,5.18
2024-02-10T16:10:50.700Z,4.87
2024-02-10T16:13:21.771Z,4.40
2024-02-10T16:15:49.540Z,5.15
2024-02-10T16:18:17.464Z,5.37
2024-02-10T16:20:47.254Z,5.03
2024-02-10T16:23:17.209Z,5.43
2024-02-10T16:25:46.658Z,8.02
2024-02-10T16:28:17.009Z,9.85
2024-02-10T16:30:44.707Z,9.45
2024-02-10T16:33:15.320Z,8.32
2024-02-10T16:35:43.095Z,6.40
2024-02-10T16:38:13.676Z,6.20
2024-02-10T16:40:42.661Z,6.15
2024-02-10T16:43:11.747Z,5.62
2024-02-10T16:45:39.133Z,5.50
2024-02-10T16:48:07.097Z,6.15
2024-02-10T16:50:35.042Z,5.68
2024-02-10T16:53:11.568Z,6.03
2024-02-10T16:55:43.449Z,5.85
2024-02-10T17:00:41.177Z,8.30
2024-02-10T17:03:15.016Z,7.93
2024-02-10T17:05:50.353Z,7.57
2024-02-10T17:08:18.081Z,7.28
2024-02-10T17:10:46.938Z,5.95
2024-02-10T17:13:14.430Z,6.60
2024-02-10T17:15:42.597Z,5.85
2024-02-10T17:18:19.186Z,5.25
2024-02-10T17:20:52.515Z,5.97
2024-02-10T17:23:23.630Z,6.10
2024-02-10T17:25:52.787Z,6.15
2024-02-10T17:28:20.924Z,6.75
2024-02-10T17:30:51.169Z,6.68
2024-02-10T17:33:21.815Z,5.95
2024-02-10T17:35:54.322Z,5.35
2024-02-10T17:38:27.225Z,5.18
2024-02-10T17:40:55.405Z,4.97
2024-02-10T17:43:24.564Z,6.10
2024-02-10T17:45:53.784Z,7.05
2024-02-10T17:48:22.474Z,6.90
2024-02-10T17:50:55.275Z,6.47
2024-02-10T17:53:28.704Z,6.37
2024-02-10T17:56:00.552Z,5.35
2024-02-10T17:58:33.118Z,5.43
2024-02-10T18:01:02.049Z,5.62
2024-02-10T18:03:32.568Z,5.12
2024-02-10T18:06:02.968Z,6.40
2024-02-10T18:08:36.395Z,5.62
2024-02-10T18:11:04.178Z,5.60
2024-02-10T18:13:32.003Z,5.53
2024-02-10T18:15:59.540Z,5.78
2024-02-10T18:18:27.034Z,5.47
2024-02-10T18:20:55.048Z,5.32
2024-02-10T18:23:26.837Z,5.93
2024-02-10T18:25:56.933Z,6.10
2024-02-10T18:28:24.782Z,6.18
2024-02-10T18:30:53.069Z,5.72
2024-02-10T18:33:20.521Z,5.65
2024-02-10T18:35:48.717Z,8.63
2024-02-10T18:38:17.710Z,6.93
2024-02-10T18:40:45.614Z,6.10
2024-02-10T18:43:15.074Z,6.40
2024-02-10T18:45:45.509Z,6.12
2024-02-10T18:48:16.151Z,5.35
2024-02-10T18:50:44.720Z,5.87
2024-02-10T18:53:14.195Z,5.97
2024-02-10T18:55:43.847Z,6.10
2024-02-10T18:58:12.796Z,6.07
2024-02-10T19:00:42.870Z,5.85
2024-02-10T19:03:10.878Z,5.57
2024-02-10T19:05:38.448Z,6.15
2024-02-10T19:08:06.222Z,7.07
2024-02-10T19:10:36.825Z,6.30
2024-02-10T19:13:04.510Z,6.22
2024-02-10T19:15:31.907Z,6.28
2024-02-10T19:17:59.645Z,6.12
2024-02-10T19:20:27.371Z,6.30
2024-02-10T19:22:54.842Z,6.45
2024-02-10T19:25:25.292Z,5.87
2024-02-10T19:27:55.295Z,6.03
2024-02-10T19:30:23.160Z,5.90
2024-02-10T19:32:53.037Z,6.60
2024-02-10T19:35:21.691Z,6.40
2024-02-10T19:37:50.427Z,6.57
2024-02-10T19:40:19.862Z,6.90
2024-02-10T19:42:48.798Z,6.43
2024-02-10T19:45:17.527Z,6.43
2024-02-10T19:47:47.638Z,6.30
2024-02-10T19:50:18.705Z,7.18
2024-02-10T19:52:47.825Z,6.75
2024-02-10T19:55:16.404Z,7.25
2024-02-10T19:57:44.028Z,7.22
2024-02-10T20:00:14.158Z,6.78
2024-02-10T20:02:45.785Z,7.05
2024-02-10T20:05:18.368Z,7.00
2024-02-10T20:07:46.625Z,6.95
2024-02-10T20:10:19.252Z,7.97
2024-02-10T20:12:47.604Z,6.72
2024-02-10T20:15:15.298Z,7.47
2024-02-10T20:17:43.595Z,7.35
2024-02-10T20:20:18.855Z,7.30
2024-02-10T20:22:47.580Z,8.13
2024-02-10T20:25:15.845Z,9.13
2024-02-10T20:27:43.403Z,10.00
2024-02-10T20:30:12.816Z,8.77
2024-02-10T20:32:40.692Z,9.52
2024-02-10T20:35:11.385Z,8.98
2024-02-10T20:37:40.221Z,8.82
2024-02-10T20:40:13.376Z,8.32
2024-02-10T20:42:41.789Z,8.02
2024-02-10T20:45:16.406Z,7.37
2024-02-10T20:47:45.548Z,7.53
2024-02-10T20:50:14.916Z,7.40
2024-02-10T20:52:42.701Z,7.00
2024-02-10T20:55:14.612Z,7.68
2024-02-10T21:00:14.580Z,6.80
2024-02-10T21:02:42.589Z,6.65
2024-02-10T21:05:16.086Z,7.25
2024-02-10T21:07:43.986Z,8.02
2024-02-10T21:10:15.317Z,7.35
2024-02-10T21:12:43.103Z,7.63
2024-02-10T21:15:11.829Z,7.45
2024-02-10T21:17:40.749Z,8.02
2024-02-10T21:20:15.112Z,7.90
2024-02-10T21:22:49.053Z,7.00
2024-02-10T21:25:17.111Z,7.28
2024-02-10T21:27:45.275Z,8.07
2024-02-10T21:30:14.030Z,7.95
2024-02-10T21:32:42.293Z,7.15
2024-02-10T21:35:11.713Z,7.85
2024-02-10T21:37:39.664Z,7.57
2024-02-10T21:40:08.135Z,8.70
2024-02-10T21:42:38.465Z,7.40
2024-02-10T21:45:06.369Z,7.68
2024-02-10T21:47:37.313Z,7.85
2024-02-10T21:50:09.172Z,6.80
2024-02-10T21:52:38.119Z,7.23
2024-02-10T21:55:06.502Z,6.95
2024-02-10T21:57:37.089Z,6.95
2024-02-10T22:00:11.578Z,7.07
2024-02-10T22:02:39.989Z,6.95
2024-02-10T22:05:08.456Z,7.03
2024-02-10T22:07:37.009Z,7.43
2024-02-10T22:10:05.247Z,7.55
2024-02-10T22:12:32.655Z,8.23
2024-02-10T22:15:00.309Z,8.85
2024-02-10T22:17:29.579Z,7.15
2024-02-10T22:19:58.040Z,7.55
2024-02-10T22:22:25.438Z,6.43
2024-02-10T22:24:53.132Z,7.85
2024-02-10T22:27:20.529Z,7.18
2024-02-10T22:29:48.141Z,7.50
2024-02-10T22:32:15.789Z,7.70
2024-02-10T22:34:43.406Z,7.37
2024-02-10T22:37:13.353Z,7.53
2024-02-10T22:39:41.506Z,7.75
2024-02-10T22:42:13.870Z,7.53
2024-02-10T22:44:43.149Z,7.20
2024-02-10T22:47:16.716Z,7.43
2024-02-10T22:49:48.539Z,8.07
2024-02-10T22:52:23.111Z,6.77
2024-02-10T22:54:54.844Z,6.97
2024-02-10T22:57:22.931Z,7.72
2024-02-10T22:59:50.962Z,8.32
2024-02-10T23:02:18.476Z,8.80
2024-02-10T23:04:47.215Z,8.75
2024-02-10T23:07:19.916Z,9.05
2024-02-10T23:09:47.289Z,8.82
2024-02-10T23:12:22.368Z,7.90
2024-02-10T23:14:54.233Z,9.13
2024-02-10T23:17:22.306Z,8.48
2024-02-10T23:19:58.462Z,8.65
2024-02-10T23:22:32.373Z,7.82
2024-02-10T23:24:59.832Z,8.32
2024-02-10T23:27:28.089Z,7.62
2024-02-10T23:29:58.493Z,7.72
2024-02-10T23:32:26.870Z,7.68
2024-02-10T23:34:54.985Z,7.25
2024-02-10T23:37:29.827Z,7.10
2024-02-10T23:39:58.080Z,8.13
2024-02-10T23:42:25.895Z,7.62
2024-02-10T23:44:57.997Z,7.70
2024-02-10T23:49:57.471Z,7.45
2024-02-10T23:52:25.978Z,8.20
2024-02-10T23:54:55.980Z,7.22
2024-02-10T23:57:23.789Z,7.47
2024-02-10T23:59:51.295Z,7.18
